createdAt,value
2022-10-10T00:02:37.299Z,91.01
2022-10-10T00:08:39.643Z,91.08
2022-10-10T00:14:41.536Z,90.90
2022-10-10T00:20:43.556Z,91.75
2022-10-10T00:26:45.511Z,92.87
2022-10-10T00:32:47.715Z,92.88
2022-10-10T00:38:49.976Z,93.19
2022-10-10T00:45:22.476Z,93.58
2022-10-10T00:51:24.454Z,93.28
2022-10-10T00:57:28.778Z,92.88
2022-10-10T01:03:31.041Z,93.49
2022-10-10T01:09:35.706Z,93.54
2022-10-10T01:21:57.404Z,93.13
2022-10-10T01:28:22.589Z,92.69
2022-10-10T01:35:00.550Z,93.76
2022-10-10T01:41:29.486Z,92.98
2022-10-10T01:47:31.419Z,93.97
2022-10-10T01:54:04.030Z,93.70
2022-10-10T02:00:14.252Z,94.82
2022-10-10T02:06:21.841Z,94.94
2022-10-10T02:12:25.963Z,94.53
2022-10-10T02:18:33.131Z,94.71
2022-10-10T02:24:35.352Z,95.03
2022-10-10T02:30:43.013Z,95.27
2022-10-10T02:36:55.211Z,94.98
2022-10-10T02:43:00.520Z,94.81
2022-10-10T02:49:02.594Z,95.26
2022-10-10T02:55:05.141Z,95.25
2022-10-10T03:01:07.180Z,95.62
2022-10-10T03:07:09.783Z,94.91
2022-10-10T03:13:11.705Z,94.49
2022-10-10T03:19:13.591Z,94.55
2022-10-10T03:25:15.605Z,94.84
2022-10-10T03:31:17.743Z,95.04
2022-10-10T03:37:19.700Z,94.14
2022-10-10T03:43:21.847Z,94.71
2022-10-10T03:49:23.735Z,94.75
2022-10-10T03:55:25.678Z,94.86
2022-10-10T04:01:28.250Z,94.45
2022-10-10T04:07:30.920Z,95.00
2022-10-10T04:13:32.817Z,95.10
2022-10-10T04:19:34.749Z,95.10
2022-10-10T04:25:36.680Z,95.83
2022-10-10T04:31:38.641Z,95.54
2022-10-10T04:37:40.793Z,95.65
2022-10-10T04:43:42.687Z,95.18
2022-10-10T04:49:44.828Z,95.29
2022-10-10T04:55:46.985Z,96.47
2022-10-10T05:01:52.579Z,96.20
2022-10-10T05:07:55.609Z,97.20
2022-10-10T05:13:57.716Z,96.98
2022-10-10T05:19:59.666Z,96.06
2022-10-10T05:26:01.570Z,96.06
2022-10-10T05:32:07.701Z,96.34
2022-10-10T05:38:11.948Z,95.86
2022-10-10T05:44:13.877Z,95.40
2022-10-10T05:50:41.144Z,95.97
2022-10-10T05:56:43.077Z,95.48
2022-10-10T06:02:45.023Z,95.30
2022-10-10T06:08:46.915Z,94.74
2022-10-10T06:14:48.789Z,95.05
2022-10-10T06:20:51.040Z,93.71
2022-10-10T06:26:52.951Z,93.60
2022-10-10T06:32:57.101Z,93.63
2022-10-10T06:38:59.308Z,93.80
2022-10-10T06:45:01.224Z,94.02
2022-10-10T06:51:07.829Z,93.09
2022-10-10T06:57:09.799Z,92.80
2022-10-10T07:03:12.716Z,91.55
2022-10-10T07:09:15.042Z,92.64
2022-10-10T07:15:17.155Z,92.65
2022-10-10T07:21:19.058Z,92.26
2022-10-10T07:27:20.978Z,92.00
2022-10-10T07:33:22.864Z,91.48
2022-10-10T07:39:26.411Z,91.62
2022-10-10T07:45:28.303Z,90.99
2022-10-10T07:51:30.236Z,91.04
2022-10-10T07:57:35.215Z,91.04
2022-10-10T08:03:37.889Z,91.14
2022-10-10T08:09:39.955Z,90.88
2022-10-10T08:15:43.477Z,90.18
2022-10-10T08:21:45.402Z,89.94
2022-10-10T08:27:47.315Z,89.43
2022-10-10T08:33:51.373Z,89.36
2022-10-10T08:39:53.283Z,88.00
2022-10-10T08:45:58.681Z,86.06
2022-10-10T09:06:33.790Z,86.31
2022-10-10T09:18:55.813Z,85.85
2022-10-10T09:25:16.462Z,86.34
2022-10-10T09:31:25.228Z,86.32
2022-10-10T09:37:46.834Z,85.19
2022-10-10T09:43:57.888Z,83.21
2022-10-10T09:49:59.849Z,77.09
2022-10-10T09:56:04.375Z,70.95
2022-10-10T10:02:17.845Z,70.52
2022-10-10T10:08:29.482Z,72.87
2022-10-10T10:14:37.578Z,74.29
2022-10-10T10:20:47.241Z,76.29
2022-10-10T10:26:49.757Z,75.17
2022-10-10T10:33:19.575Z,76.43
2022-10-10T10:39:45.568Z,74.01
2022-10-10T10:45:53.077Z,71.75
2022-10-10T10:52:32.383Z,63.14
2022-10-10T10:59:31.515Z,59.02
2022-10-10T11:05:41.741Z,51.93
2022-10-10T11:11:51.559Z,48.22
2022-10-10T11:18:10.754Z,44.90
2022-10-10T11:24:25.653Z,42.64
2022-10-10T11:31:22.106Z,41.29
2022-10-10T11:37:31.006Z,37.40
2022-10-10T11:44:24.073Z,37.81
2022-10-10T11:50:34.985Z,39.64
2022-10-10T11:56:45.321Z,40.78
2022-10-10T12:02:48.208Z,38.84
2022-10-10T12:09:16.536Z,39.70
2022-10-10T12:15:41.280Z,39.28
2022-10-10T12:22:01.191Z,41.09
2022-10-10T12:28:05.996Z,38.17
2022-10-10T12:34:15.075Z,38.21
2022-10-10T12:40:21.779Z,39.11
2022-10-10T12:46:33.017Z,38.16
2022-10-10T12:53:12.006Z,41.87
2022-10-10T12:59:24.722Z,43.72
2022-10-10T13:13:21.172Z,38.33
2022-10-10T13:19:25.379Z,37.98
2022-10-10T13:25:28.033Z,38.88
2022-10-10T13:31:31.442Z,39.72
2022-10-10T13:37:34.330Z,39.95
2022-10-10T13:43:36.312Z,37.95
2022-10-10T13:49:56.810Z,38.52
2022-10-10T13:56:57.998Z,39.87
2022-10-10T14:03:02.892Z,41.16
2022-10-10T14:09:25.359Z,38.75
2022-10-10T14:15:42.887Z,40.28
2022-10-10T14:21:50.287Z,42.30
2022-10-10T14:27:52.223Z,44.38
2022-10-10T14:33:54.680Z,45.92
2022-10-10T14:39:56.942Z,46.35
2022-10-10T14:45:58.965Z,43.63
2022-10-10T14:52:01.676Z,43.43
2022-10-10T14:58:05.343Z,48.32
2022-10-10T15:04:07.289Z,51.60
2022-10-10T15:16:36.026Z,56.20
2022-10-10T15:22:38.155Z,58.56
2022-10-10T15:28:44.854Z,60.38
2022-10-10T15:34:50.557Z,57.64
2022-10-10T15:41:02.681Z,58.42
2022-10-10T15:47:04.966Z,62.50
2022-10-10T15:53:07.233Z,67.27
2022-10-10T15:59:13.573Z,69.74
2022-10-10T16:05:15.666Z,68.59
2022-10-10T16:11:21.178Z,72.15
2022-10-10T16:17:23.962Z,74.14
2022-10-10T16:23:26.384Z,77.00
2022-10-10T16:29:28.471Z,78.61
2022-10-10T16:35:30.437Z,79.57
2022-10-10T16:41:49.683Z,80.71
2022-10-10T16:47:51.744Z,81.98
2022-10-10T16:53:54.718Z,82.70
2022-10-10T16:59:56.629Z,82.92
2022-10-10T17:06:20.397Z,83.67
2022-10-10T17:12:22.428Z,83.46
2022-10-10T17:18:24.415Z,83.27
2022-10-10T17:24:26.435Z,82.76
2022-10-10T17:30:28.496Z,81.33
2022-10-10T17:36:30.521Z,73.44
2022-10-10T17:42:34.535Z,70.45
2022-10-10T17:48:39.793Z,68.80
2022-10-10T17:54:41.766Z,66.76
2022-10-10T18:00:44.185Z,67.79
2022-10-10T18:06:47.199Z,65.55
2022-10-10T18:12:49.317Z,67.18
2022-10-10T18:18:52.158Z,68.26
2022-10-10T18:24:54.267Z,68.53
2022-10-10T18:30:56.211Z,67.63
2022-10-10T18:36:58.471Z,67.86
2022-10-10T18:43:00.484Z,67.63
2022-10-10T18:49:13.796Z,67.53
2022-10-10T18:55:18.353Z,68.76
2022-10-10T19:01:24.818Z,71.42
2022-10-10T19:07:27.280Z,72.69
2022-10-10T19:13:31.888Z,72.14
2022-10-10T19:19:34.000Z,73.25
2022-10-10T19:25:46.300Z,73.46
2022-10-10T19:31:48.199Z,74.90
2022-10-10T19:38:08.695Z,76.41
2022-10-10T19:44:10.778Z,77.11
2022-10-10T19:50:12.893Z,78.54
2022-10-10T19:56:24.358Z,79.39
2022-10-10T20:02:26.401Z,81.28
2022-10-10T20:08:29.187Z,82.60
2022-10-10T20:14:37.933Z,82.95
2022-10-10T20:20:43.465Z,84.58
2022-10-10T20:26:47.508Z,85.96
2022-10-10T20:32:49.492Z,87.67
2022-10-10T20:38:54.062Z,89.91
2022-10-10T20:44:55.997Z,93.08
2022-10-10T20:51:21.556Z,92.05
2022-10-10T20:57:23.529Z,90.04
2022-10-10T21:03:25.673Z,86.72
2022-10-10T21:09:27.737Z,87.15
2022-10-10T21:15:30.749Z,85.48
2022-10-10T21:21:35.203Z,85.62
2022-10-10T21:27:37.057Z,85.70
2022-10-10T21:33:39.222Z,85.81
2022-10-10T21:39:41.128Z,86.01
2022-10-10T21:45:43.765Z,86.49
2022-10-10T21:51:45.990Z,86.67
2022-10-10T21:57:48.295Z,87.67
2022-10-10T22:03:52.464Z,87.55
2022-10-10T22:09:55.421Z,88.32
2022-10-10T22:15:57.754Z,88.56
2022-10-10T22:22:00.230Z,88.90
2022-10-10T22:28:06.072Z,89.13
2022-10-10T22:34:08.408Z,89.32
2022-10-10T22:40:10.994Z,92.09
2022-10-10T22:46:13.124Z,93.30
2022-10-10T22:52:15.067Z,94.31
2022-10-10T22:58:16.974Z,95.15
2022-10-10T23:04:18.903Z,94.59
2022-10-10T23:10:20.800Z,94.35
2022-10-10T23:16:22.949Z,94.37
2022-10-10T23:22:26.733Z,94.87
2022-10-10T23:28:28.860Z,94.86
2022-10-10T23:34:30.867Z,94.48
2022-10-10T23:40:33.898Z,97.26
2022-10-10T23:46:35.841Z,96.94
2022-10-10T23:52:38.431Z,97.50
2022-10-10T23:58:40.374Z,97.86
